This is the latest recevied weather packets stored in our database for station/object KE6JJJ-1. If no packets are shown the sender has not sent any weather packets the latest 10 day(s).
| Time | Temp. | Humidity | Pressure | Rain* | Wind** | Luminosity | Snow |
|---|---|---|---|---|---|---|---|
| 1777928703 | 17.78° C | 64% | 1015.3 hPa | 0 mm | - | 656 W/m² | - |
| 1777926904 | 18.33° C | 64% | 1015.4 hPa | 0 mm | - | 478 W/m² | - |
| 1777925104 | 18.33° C | 64% | 1015.2 hPa | 0 mm | - | 517 W/m² | - |
| 1777923303 | 17.22° C | 69% | 1015.7 hPa | 0 mm | - | 812 W/m² | - |
| 1777921503 | 17.78° C | 70% | 1015.5 hPa | 0 mm | - | 473 W/m² | - |
| 1777919703 | 17.22° C | 67% | 1015.5 hPa | 0 mm | - | 582 W/m² | - |
| 1777917904 | 16.67° C | 70% | 1015.7 hPa | 0 mm | - | 434 W/m² | - |
| 1777916103 | 17.22° C | 68% | 1015.1 hPa | 0 mm | - | 318 W/m² | - |
| 1777914303 | 17.22° C | 68% | 1014.8 hPa | 0 mm | - | 707 W/m² | - |
| 1777912503 | 16.11° C | 73% | 1014.8 hPa | 0 mm | - | 172 W/m² | - |
| 1777910703 | 16.11° C | 74% | 1014.9 hPa | 0 mm | - | 190 W/m² | - |
| 1777908903 | 15.56° C | 79% | 1014.8 hPa | 0 mm | - | 120 W/m² | - |
| 1777907103 | 15° C | 86% | 1014.8 hPa | 0 mm | - | 304 W/m² | - |
| 1777905303 | 13.33° C | 88% | 1015 hPa | 0 mm | - | 54 W/m² | - |
| 1777903504 | 12.78° C | 87% | 1014.7 hPa | 0 mm | - | 53 W/m² | - |
| 1777901703 | 12.78° C | 87% | 1014.4 hPa | 0 mm | - | 14 W/m² | - |
| 1777899904 | 12.78° C | 87% | 1014.4 hPa | 0 mm | - | 0 W/m² | - |
| 1777898103 | 12.78° C | 87% | 1014.3 hPa | 0 mm | - | 0 W/m² | - |
| 1777896303 | 12.78° C | 86% | 1014.2 hPa | 0 mm | - | 0 W/m² | - |
| 1777894503 | 12.78° C | 86% | 1014.1 hPa | 0 mm | - | 0 W/m² | - |
| 1777892718 | 12.78° C | 87% | 1014.1 hPa | 0 mm | - | 0 W/m² | - |
| 1777890903 | 12.78° C | 87% | 1014.2 hPa | 0 mm | - | 0 W/m² | - |
| 1777889104 | 12.78° C | 87% | 1014.1 hPa | 0 mm | - | 0 W/m² | - |
| 1777887303 | 12.78° C | 87% | 1014 hPa | 0 mm | - | 0 W/m² | - |
| 1777885503 | 12.78° C | 87% | 1014.2 hPa | 0 mm | - | 0 W/m² | - |
* Rain latest hour (hover to see other rain measurements)
** Current wind speed in m/s (hover to see current wind gust speed)